European Causeway — C6RG7 — position and weather

sailwx.info

Track history (hours):
 
Tides and Currents Weather Stations Pressure Air Temp Water Temp Dewpoint Dewpoint Depression Visibility Wind Speed Wind Dir Waves Ship Positions

European Causeway

Operator: P & O Irish Sea

Last reported at 2015-Jul-28 12:33 UTC. Time now 2015-Jul-28 13:20 UTC.
Position N 54°51' W 005°48'.

Length 165 m; draft 5.5 m.

Type: Passenger vessel. MMSI: 311027000.

Date/timePositionNaut miles runAvg speedWind from/ knotsBaromVisibWave heightAir tempDewpointWater temp
2015-Jul-28 12:33N 54°51' W 005°48'0 0.1
2015-Jul-28 11:33N 54°51' W 005°48'1111.3
2015-Jul-28 10:34N 54°56' W 005°31'1616.0
2015-Jul-28 09:32N 54°59' W 005°03'1 1.5
2015-Jul-28 08:33N 54°58' W 005°01'10 9.9
2015-Jul-28 07:34N 54°59' W 005°18'1818.4
2015-Jul-28 06:34N 54°52' W 005°47'1 1.0
2015-Jul-28 05:33N 54°51' W 005°48'2 2.4
2015-Jul-28 04:33N 54°52' W 005°45'1817.9
2015-Jul-28 03:33N 55°00' W 005°17'9 9.4
2015-Jul-28 02:33N 54°58' W 005°01'0 0.0
2015-Jul-28 01:33N 54°58' W 005°01'5 5.1
2015-Jul-28 00:33N 55°02' W 005°07'1817.8
2015-Jul-27 23:33N 54°54' W 005°35'8 8.0
2015-Jul-27 22:33N 54°51' W 005°48'0 0.0
2015-Jul-27 21:33N 54°51' W 005°48'1 0.5
2015-Jul-27 20:33N 54°51' W 005°48'1818.3
2015-Jul-27 19:34N 54°59' W 005°19'1110.1
2015-Jul-27 18:31N 54°58' W 005°01'0 0.0
2015-Jul-27 17:31N 54°58' W 005°01'1212.2
2015-Jul-27 16:33N 54°58' W 005°21'1716.7
2015-Jul-27 15:34N 54°51' W 005°48'0 0.1
2015-Jul-27 14:33N 54°51' W 005°48'1010.0
2015-Jul-27 13:33N 54°56' W 005°33'1716.4
2015-Jul-27 12:31N 54°60' W 005°04'3 2.6
2015-Jul-27 11:33N 54°58' W 005°01'10 9.9
2015-Jul-27 10:34N 54°59' W 005°18'1817.8
2015-Jul-27 09:33N 54°52' W 005°47'1 1.3
2015-Jul-27 08:34N 54°51' W 005°48'1010.1
2015-Jul-27 07:33N 54°56' W 005°33'1716.4
2015-Jul-27 06:30N 54°59' W 005°03'2 1.9
2015-Jul-27 05:27N 54°58' W 005°01'2 2.0
2015-Jul-27 04:33N 54°59' W 005°03'1616.3
2015-Jul-27 03:33N 54°55' W 005°30'1111.0
2015-Jul-27 02:33N 54°51' W 005°48'0 0.0
2015-Jul-27 01:33N 54°51' W 005°48'0 0.0
2015-Jul-27 00:33N 54°51' W 005°48'0 0.0
2015-Jul-26 23:33N 54°51' W 005°48'1717.5
2015-Jul-26 22:33N 54°59' W 005°21'1211.4
2015-Jul-26 21:32N 54°58' W 005°01'5 4.9
2015-Jul-26 20:26N 55°02' W 005°08'1618.0
2015-Jul-26 19:34N 54°55' W 005°33'10 9.6
2015-Jul-26 18:33N 54°51' W 005°48'0 0.0
2015-Jul-26 17:33N 54°51' W 005°48'1111.3
2015-Jul-26 16:33N 54°56' W 005°31'1615.8
2015-Jul-26 15:31N 54°59' W 005°03'1 1.5
2015-Jul-26 14:33N 54°58' W 005°01'1111.5
2015-Jul-26 13:33N 54°58' W 005°21'1716.8
2015-Jul-26 12:32N 54°51' W 005°48'0 0.1
2015-Jul-26 11:33N 54°51' W 005°48'1212.2
2015-Jul-26 10:33N 54°57' W 005°30'1615.1
2015-Jul-26 09:30N 54°58' W 005°02'1 0.6
2015-Jul-26 08:33N 54°58' W 005°01'9 9.5
2015-Jul-26 07:33N 54°59' W 005°17'1918.6
2015-Jul-26 06:32N 54°52' W 005°48'1 0.8
2015-Jul-26 05:32N 54°51' W 005°48'0 0.0
2015-Jul-26 04:29N 54°51' W 005°48'0 0.0
2015-Jul-26 03:26N 54°51' W 005°48'0 0.0
2015-Jul-26 02:32N 54°51' W 005°48'0 0.0
2015-Jul-26 01:32N 54°51' W 005°48'0 0.0
2015-Jul-26 00:29N 54°51' W 005°48'0 0.0
2015-Jul-25 23:32N 54°51' W 005°48'0 0.0
2015-Jul-25 22:32N 54°51' W 005°48'0 0.0
2015-Jul-25 21:29N 54°51' W 005°48'0 0.2
2015-Jul-25 20:33N 54°51' W 005°48'1817.8
2015-Jul-25 19:33N 54°59' W 005°20'11 9.6
2015-Jul-25 18:24N 54°58' W 005°01'0 0.0
2015-Jul-25 17:33N 54°58' W 005°01'9 8.9
2015-Jul-25 16:34N 54°59' W 005°16'1918.9
2015-Jul-25 15:32N 54°52' W 005°47'1 1.3
2015-Jul-25 14:33N 54°51' W 005°48'1211.8
2015-Jul-25 13:33N 54°57' W 005°30'1615.6
2015-Jul-25 12:33N 54°59' W 005°03'2 1.8
2015-Jul-25 11:32N 54°58' W 005°01'9 8.9
2015-Jul-25 10:34N 54°59' W 005°16'1918.5
2015-Jul-25 09:33N 54°52' W 005°46'2 1.8
2015-Jul-25 08:33N 54°51' W 005°48'1111.0
2015-Jul-25 07:34N 54°56' W 005°31'1615.8
2015-Jul-25 06:31N 54°59' W 005°03'2 1.8
2015-Jul-25 05:32N 54°58' W 005°01'1 0.6
2015-Jul-25 04:33N 54°58' W 005°02'1615.6
2015-Jul-25 03:33N 54°56' W 005°29'1212.2
2015-Jul-25 02:34N 54°51' W 005°48'0 0.0
2015-Jul-25 01:34N 54°51' W 005°48'2 1.8
2015-Jul-25 00:34N 54°52' W 005°46'1818.3
2015-Jul-24 23:34N 55°00' W 005°17'10 9.0
2015-Jul-24 22:30N 54°58' W 005°01'0 0.0
2015-Jul-24 21:33N 54°58' W 005°01'1 1.2
2015-Jul-24 20:33N 54°59' W 005°02'1515.4
2015-Jul-24 19:34N 54°56' W 005°29'1212.1
2015-Jul-24 18:33N 54°51' W 005°48'0 0.0
2015-Jul-24 17:33N 54°51' W 005°48'1211.9
2015-Jul-24 16:33N 54°56' W 005°29'1615.4
2015-Jul-24 15:32N 54°59' W 005°02'1 1.3
2015-Jul-24 14:33N 54°58' W 005°01'1010.0
2015-Jul-24 13:33N 54°59' W 005°18'1818.4
2015-Jul-24 12:33N 54°52' W 005°48'1 0.8
2015-Jul-24 11:33N 54°51' W 005°48'1313.3
2015-Jul-24 10:34N 54°57' W 005°28'1514.4
2015-Jul-24 09:31N 54°58' W 005°02'0 0.5
2015-Jul-24 08:33N 54°58' W 005°01'1010.3
2015-Jul-24 07:33N 54°59' W 005°19'1817.7
2015-Jul-24 06:31N 54°51' W 005°48'0 0.2
2015-Jul-24 05:33N 54°51' W 005°48'5 4.9
2015-Jul-24 04:34N 54°54' W 005°42'2120.7
2015-Jul-24 03:34N 55°01' W 005°08'5 4.9
2015-Jul-24 02:28N 54°58' W 005°01'0 0.0
2015-Jul-24 01:28N 54°58' W 005°01'5 4.9
2015-Jul-24 00:30N 55°01' W 005°06'1718.4
2015-Jul-23 23:34N 54°55' W 005°34'9 8.7
2015-Jul-23 22:31N 54°51' W 005°48'0 0.0
2015-Jul-23 21:28N 54°51' W 005°48'4 4.2
2015-Jul-23 20:33N 54°53' W 005°42'1919.2
2015-Jul-23 19:33N 55°01' W 005°12'7 6.9
2015-Jul-23 18:30N 54°58' W 005°01'0 0.0
2015-Jul-23 17:33N 54°58' W 005°01'1010.2
2015-Jul-23 16:34N 54°59' W 005°19'1817.7
2015-Jul-23 15:32N 54°51' W 005°48'1 0.7
2015-Jul-23 14:33N 54°51' W 005°48'1312.5
2015-Jul-23 13:33N 54°57' W 005°29'1515.2
2015-Jul-23 12:33N 54°59' W 005°03'2 1.7
2015-Jul-23 11:32N 54°58' W 005°01'1010.4
2015-Jul-23 10:33N 54°59' W 005°19'1818.3
2015-Jul-23 09:33N 54°51' W 005°48'0 0.4
2015-Jul-23 08:33N 54°51' W 005°48'1312.7
2015-Jul-23 07:33N 54°57' W 005°29'1514.7
2015-Jul-23 06:31N 54°58' W 005°02'6 2.8
2015-Jul-23 04:17N 55°01' W 005°12'1317.0
2015-Jul-23 03:31N 54°55' W 005°33'1010.1
2015-Jul-23 02:33N 54°51' W 005°48'0 0.0
2015-Jul-23 01:33N 54°51' W 005°48'1 1.1
2015-Jul-23 00:33N 54°52' W 005°47'1918.6
2015-Jul-22 23:32N 54°60' W 005°17'10 9.9
2015-Jul-22 22:33N 54°58' W 005°01'0 0.0
2015-Jul-22 21:33N 54°58' W 005°01'5 4.7
2015-Jul-22 20:29N 55°02' W 005°07'1617.0
2015-Jul-22 19:33N 54°55' W 005°32'1010.0
2015-Jul-22 18:33N 54°51' W 005°48'0 0.0
2015-Jul-22 17:33N 54°51' W 005°48'1413.9
2015-Jul-22 16:34N 54°57' W 005°27'1513.9
2015-Jul-22 15:30N 54°58' W 005°01'0 0.0
2015-Jul-22 14:33N 54°58' W 005°01'10 9.8
2015-Jul-22 13:33N 54°59' W 005°18'1918.1
2015-Jul-22 12:32N 54°51' W 005°48'1 0.6
2015-Jul-22 11:33N 54°51' W 005°48'1313.2
2015-Jul-22 10:33N 54°57' W 005°28'1514.7
2015-Jul-22 09:31N 54°58' W 005°01'0 0.1
2015-Jul-22 08:34N 54°58' W 005°01'1010.1
2015-Jul-22 07:33N 54°59' W 005°18'1818.0
2015-Jul-22 06:32N 54°51' W 005°48'0 0.3
2015-Jul-22 05:33N 54°51' W 005°48'5 4.6
2015-Jul-22 04:34N 54°53' W 005°41'1918.7
2015-Jul-22 03:33N 55°01' W 005°11'7 6.8
2015-Jul-22 02:31N 54°58' W 005°01'0 0.0
2015-Jul-22 01:33N 54°58' W 005°01'3 2.6
2015-Jul-22 00:33N 54°60' W 005°04'1616.6
2015-Jul-21 23:33N 54°55' W 005°31'1110.6
2015-Jul-21 22:33N 54°51' W 005°48'0 0.0
2015-Jul-21 21:33N 54°51' W 005°48'0 0.5
2015-Jul-21 20:33N 54°51' W 005°48'1818.3
2015-Jul-21 19:33N 54°60' W 005°19'1110.2
2015-Jul-21 18:30N 54°58' W 005°01'0 0.0
2015-Jul-21 17:33N 54°58' W 005°01'1111.4
2015-Jul-21 16:34N 54°58' W 005°21'1717.1
2015-Jul-21 15:33N 54°51' W 005°48'0 0.2
2015-Jul-21 14:34N 54°51' W 005°48'1212.0
2015-Jul-21 13:33N 54°56' W 005°30'1615.6
2015-Jul-21 12:33N 54°59' W 005°03'1 1.4
2015-Jul-21 11:33N 54°58' W 005°01'1010.4
2015-Jul-21 10:33N 54°58' W 005°19'1818.0
2015-Jul-21 09:33N 54°51' W 005°48'0 0.3
2015-Jul-21 08:24N 54°51' W 005°48'1213.8
2015-Jul-21 07:33N 54°56' W 005°30'1615.4
2015-Jul-21 06:31N 54°59' W 005°02'1 1.4
2015-Jul-21 05:30N 54°58' W 005°01'2 2.0
2015-Jul-21 04:33N 54°59' W 005°03'1616.3
2015-Jul-21 03:33N 54°55' W 005°30'1111.0
2015-Jul-21 02:33N 54°51' W 005°48'0 0.0
2015-Jul-21 01:33N 54°51' W 005°48'2 1.9
2015-Jul-21 00:33N 54°52' W 005°46'1817.9
2015-Jul-20 23:33N 55°00' W 005°18'10 9.9
2015-Jul-20 22:33N 54°58' W 005°01'0 0.0
2015-Jul-20 21:33N 54°58' W 005°01'5 4.7
2015-Jul-20 20:27N 55°02' W 005°07'1617.9
2015-Jul-20 19:33N 54°55' W 005°32'1010.0
2015-Jul-20 18:33N 54°51' W 005°48'0 0.0
2015-Jul-20 17:33N 54°51' W 005°48'1313.0
2015-Jul-20 16:33N 54°57' W 005°28'1613.6
2015-Jul-20 15:25N 54°58' W 005°01'0 0.0
2015-Jul-20 14:33N 54°58' W 005°01'1111.2
2015-Jul-20 13:33N 54°58' W 005°20'1717.5
2015-Jul-20 12:33N 54°51' W 005°48'0 0.0
2015-Jul-20 11:33N 54°51' W 005°48'1212.2
2015-Jul-20 10:34N 54°57' W 005°29'1615.1
2015-Jul-20 09:31N 54°58' W 005°02'1 0.8
2015-Jul-20 08:34N 54°58' W 005°01'1211.6
2015-Jul-20 07:33N 54°59' W 005°21'1717.3
2015-Jul-20 06:33N 54°51' W 005°48'0 0.1
2015-Jul-20 05:33N 54°51' W 005°48'4 3.8
2015-Jul-20 04:34N 54°53' W 005°43'1918.8
2015-Jul-20 03:34N 55°01' W 005°13'8 7.6
2015-Jul-20 02:34N 54°58' W 005°01'0 0.0
2015-Jul-20 01:34N 54°58' W 005°01'0 0.0
2015-Jul-20 00:31N 54°58' W 005°01'5 4.5
2015-Jul-19 23:22N 55°02' W 005°07'1518.8
2015-Jul-19 22:33N 54°55' W 005°31'1110.6
2015-Jul-19 21:33N 54°51' W 005°48'2 2.1
2015-Jul-19 20:33N 54°53' W 005°47'1817.8
2015-Jul-19 19:33N 54°60' W 005°18'10 9.7
2015-Jul-19 18:31N 54°58' W 005°01'0 0.0
2015-Jul-19 17:33N 54°58' W 005°01'1212.1
2015-Jul-19 16:33N 54°58' W 005°22'1616.4
2015-Jul-19 15:34N 54°51' W 005°48'0 0.1
2015-Jul-19 14:33N 54°51' W 005°48'1414.1
2015-Jul-19 13:34N 54°58' W 005°26'1514.5
2015-Jul-19 12:33N 54°58' W 005°01'0 0.0
2015-Jul-19 11:34N 54°58' W 005°01'1010.1
2015-Jul-19 10:34N 54°57' W 005°19'1817.8
2015-Jul-19 09:33N 54°51' W 005°48'0 0.1
2015-Jul-19 08:34N 54°51' W 005°48'1414.2
2015-Jul-19 07:33N 54°58' W 005°26'1413.9
2015-Jul-19 06:31N 54°58' W 005°01'0 0.0
2015-Jul-19 05:32N 54°58' W 005°01'0 0.0
2015-Jul-19 04:33N 54°58' W 005°01'0 0.0
2015-Jul-19 00:31N 54°58' W 005°01'0 0.0
2015-Jul-18 23:33N 54°58' W 005°01'0 0.0
2015-Jul-18 22:28N 54°58' W 005°01'0 0.0
2015-Jul-18 21:33N 54°58' W 005°01'7 7.2
2015-Jul-18 20:33N 55°00' W 005°13'1919.1
2015-Jul-18 19:33N 54°53' W 005°43'3 3.3
2015-Jul-18 18:34N 54°51' W 005°48'0 0.0
2015-Jul-18 17:33N 54°51' W 005°48'1211.7
2015-Jul-18 16:33N 54°57' W 005°30'1615.3
2015-Jul-18 15:30N 54°59' W 005°02'1 1.1
2015-Jul-18 14:33N 54°58' W 005°01'1110.7
2015-Jul-18 13:33N 54°58' W 005°20'1817.8
2015-Jul-18 12:34N 54°51' W 005°48'  
Track history (hours):
 
Tides and Currents Weather Stations Pressure Air Temp Water Temp Dewpoint Dewpoint Depression Visibility Wind Speed Wind Dir Waves Ship Positions

European Causeway

Operator: P & O Irish Sea

Last reported at 2015-Jul-28 12:33 UTC. Time now 2015-Jul-28 13:20 UTC.
Position N 54°51' W 005°48'.

Length 165 m; draft 5.5 m.

Type: Passenger vessel. MMSI: 311027000.

Date/timePositionNaut miles runAvg speedWind from/ knotsBaromVisibWave heightAir tempDewpointWater temp
2015-Jul-28 12:33N 54°51' W 005°48'0 0.1
2015-Jul-28 11:33N 54°51' W 005°48'1111.3
2015-Jul-28 10:34N 54°56' W 005°31'1616.0
2015-Jul-28 09:32N 54°59' W 005°03'1 1.5
2015-Jul-28 08:33N 54°58' W 005°01'10 9.9
2015-Jul-28 07:34N 54°59' W 005°18'1818.4
2015-Jul-28 06:34N 54°52' W 005°47'1 1.0
2015-Jul-28 05:33N 54°51' W 005°48'2 2.4
2015-Jul-28 04:33N 54°52' W 005°45'1817.9
2015-Jul-28 03:33N 55°00' W 005°17'9 9.4
2015-Jul-28 02:33N 54°58' W 005°01'0 0.0
2015-Jul-28 01:33N 54°58' W 005°01'5 5.1
2015-Jul-28 00:33N 55°02' W 005°07'1817.8
2015-Jul-27 23:33N 54°54' W 005°35'8 8.0
2015-Jul-27 22:33N 54°51' W 005°48'0 0.0
2015-Jul-27 21:33N 54°51' W 005°48'1 0.5
2015-Jul-27 20:33N 54°51' W 005°48'1818.3
2015-Jul-27 19:34N 54°59' W 005°19'1110.1
2015-Jul-27 18:31N 54°58' W 005°01'0 0.0
2015-Jul-27 17:31N 54°58' W 005°01'1212.2
2015-Jul-27 16:33N 54°58' W 005°21'1716.7
2015-Jul-27 15:34N 54°51' W 005°48'0 0.1
2015-Jul-27 14:33N 54°51' W 005°48'1010.0
2015-Jul-27 13:33N 54°56' W 005°33'1716.4
2015-Jul-27 12:31N 54°60' W 005°04'3 2.6
2015-Jul-27 11:33N 54°58' W 005°01'10 9.9
2015-Jul-27 10:34N 54°59' W 005°18'1817.8
2015-Jul-27 09:33N 54°52' W 005°47'1 1.3
2015-Jul-27 08:34N 54°51' W 005°48'1010.1
2015-Jul-27 07:33N 54°56' W 005°33'1716.4
2015-Jul-27 06:30N 54°59' W 005°03'2 1.9
2015-Jul-27 05:27N 54°58' W 005°01'2 2.0
2015-Jul-27 04:33N 54°59' W 005°03'1616.3
2015-Jul-27 03:33N 54°55' W 005°30'1111.0
2015-Jul-27 02:33N 54°51' W 005°48'0 0.0
2015-Jul-27 01:33N 54°51' W 005°48'0 0.0
2015-Jul-27 00:33N 54°51' W 005°48'0 0.0
2015-Jul-26 23:33N 54°51' W 005°48'1717.5
2015-Jul-26 22:33N 54°59' W 005°21'1211.4
2015-Jul-26 21:32N 54°58' W 005°01'5 4.9
2015-Jul-26 20:26N 55°02' W 005°08'1618.0
2015-Jul-26 19:34N 54°55' W 005°33'10 9.6
2015-Jul-26 18:33N 54°51' W 005°48'0 0.0
2015-Jul-26 17:33N 54°51' W 005°48'1111.3
2015-Jul-26 16:33N 54°56' W 005°31'1615.8
2015-Jul-26 15:31N 54°59' W 005°03'1 1.5
2015-Jul-26 14:33N 54°58' W 005°01'1111.5
2015-Jul-26 13:33N 54°58' W 005°21'1716.8
2015-Jul-26 12:32N 54°51' W 005°48'0 0.1
2015-Jul-26 11:33N 54°51' W 005°48'1212.2
2015-Jul-26 10:33N 54°57' W 005°30'1615.1
2015-Jul-26 09:30N 54°58' W 005°02'1 0.6
2015-Jul-26 08:33N 54°58' W 005°01'9 9.5
2015-Jul-26 07:33N 54°59' W 005°17'1918.6
2015-Jul-26 06:32N 54°52' W 005°48'1 0.8
2015-Jul-26 05:32N 54°51' W 005°48'0 0.0
2015-Jul-26 04:29N 54°51' W 005°48'0 0.0
2015-Jul-26 03:26N 54°51' W 005°48'0 0.0
2015-Jul-26 02:32N 54°51' W 005°48'0 0.0
2015-Jul-26 01:32N 54°51' W 005°48'0 0.0
2015-Jul-26 00:29N 54°51' W 005°48'0 0.0
2015-Jul-25 23:32N 54°51' W 005°48'0 0.0
2015-Jul-25 22:32N 54°51' W 005°48'0 0.0
2015-Jul-25 21:29N 54°51' W 005°48'0 0.2
2015-Jul-25 20:33N 54°51' W 005°48'1817.8
2015-Jul-25 19:33N 54°59' W 005°20'11 9.6
2015-Jul-25 18:24N 54°58' W 005°01'0 0.0
2015-Jul-25 17:33N 54°58' W 005°01'9 8.9
2015-Jul-25 16:34N 54°59' W 005°16'1918.9
2015-Jul-25 15:32N 54°52' W 005°47'1 1.3
2015-Jul-25 14:33N 54°51' W 005°48'1211.8
2015-Jul-25 13:33N 54°57' W 005°30'1615.6
2015-Jul-25 12:33N 54°59' W 005°03'2 1.8
2015-Jul-25 11:32N 54°58' W 005°01'9 8.9
2015-Jul-25 10:34N 54°59' W 005°16'1918.5
2015-Jul-25 09:33N 54°52' W 005°46'2 1.8
2015-Jul-25 08:33N 54°51' W 005°48'1111.0
2015-Jul-25 07:34N 54°56' W 005°31'1615.8
2015-Jul-25 06:31N 54°59' W 005°03'2 1.8
2015-Jul-25 05:32N 54°58' W 005°01'1 0.6
2015-Jul-25 04:33N 54°58' W 005°02'1615.6
2015-Jul-25 03:33N 54°56' W 005°29'1212.2
2015-Jul-25 02:34N 54°51' W 005°48'0 0.0
2015-Jul-25 01:34N 54°51' W 005°48'2 1.8
2015-Jul-25 00:34N 54°52' W 005°46'1818.3
2015-Jul-24 23:34N 55°00' W 005°17'10 9.0
2015-Jul-24 22:30N 54°58' W 005°01'0 0.0
2015-Jul-24 21:33N 54°58' W 005°01'1 1.2
2015-Jul-24 20:33N 54°59' W 005°02'1515.4
2015-Jul-24 19:34N 54°56' W 005°29'1212.1
2015-Jul-24 18:33N 54°51' W 005°48'0 0.0
2015-Jul-24 17:33N 54°51' W 005°48'1211.9
2015-Jul-24 16:33N 54°56' W 005°29'1615.4
2015-Jul-24 15:32N 54°59' W 005°02'1 1.3
2015-Jul-24 14:33N 54°58' W 005°01'1010.0
2015-Jul-24 13:33N 54°59' W 005°18'1818.4
2015-Jul-24 12:33N 54°52' W 005°48'1 0.8
2015-Jul-24 11:33N 54°51' W 005°48'1313.3
2015-Jul-24 10:34N 54°57' W 005°28'1514.4
2015-Jul-24 09:31N 54°58' W 005°02'0 0.5
2015-Jul-24 08:33N 54°58' W 005°01'1010.3
2015-Jul-24 07:33N 54°59' W 005°19'1817.7
2015-Jul-24 06:31N 54°51' W 005°48'0 0.2
2015-Jul-24 05:33N 54°51' W 005°48'5 4.9
2015-Jul-24 04:34N 54°54' W 005°42'2120.7
2015-Jul-24 03:34N 55°01' W 005°08'5 4.9
2015-Jul-24 02:28N 54°58' W 005°01'0 0.0
2015-Jul-24 01:28N 54°58' W 005°01'5 4.9
2015-Jul-24 00:30N 55°01' W 005°06'1718.4
2015-Jul-23 23:34N 54°55' W 005°34'9 8.7
2015-Jul-23 22:31N 54°51' W 005°48'0 0.0
2015-Jul-23 21:28N 54°51' W 005°48'4 4.2
2015-Jul-23 20:33N 54°53' W 005°42'1919.2
2015-Jul-23 19:33N 55°01' W 005°12'7 6.9
2015-Jul-23 18:30N 54°58' W 005°01'0 0.0
2015-Jul-23 17:33N 54°58' W 005°01'1010.2
2015-Jul-23 16:34N 54°59' W 005°19'1817.7
2015-Jul-23 15:32N 54°51' W 005°48'1 0.7
2015-Jul-23 14:33N 54°51' W 005°48'1312.5
2015-Jul-23 13:33N 54°57' W 005°29'1515.2
2015-Jul-23 12:33N 54°59' W 005°03'2 1.7
2015-Jul-23 11:32N 54°58' W 005°01'1010.4
2015-Jul-23 10:33N 54°59' W 005°19'1818.3
2015-Jul-23 09:33N 54°51' W 005°48'0 0.4
2015-Jul-23 08:33N 54°51' W 005°48'1312.7
2015-Jul-23 07:33N 54°57' W 005°29'1514.7
2015-Jul-23 06:31N 54°58' W 005°02'6 2.8
2015-Jul-23 04:17N 55°01' W 005°12'1317.0
2015-Jul-23 03:31N 54°55' W 005°33'1010.1
2015-Jul-23 02:33N 54°51' W 005°48'0 0.0
2015-Jul-23 01:33N 54°51' W 005°48'1 1.1
2015-Jul-23 00:33N 54°52' W 005°47'1918.6
2015-Jul-22 23:32N 54°60' W 005°17'10 9.9
2015-Jul-22 22:33N 54°58' W 005°01'0 0.0
2015-Jul-22 21:33N 54°58' W 005°01'5 4.7
2015-Jul-22 20:29N 55°02' W 005°07'1617.0
2015-Jul-22 19:33N 54°55' W 005°32'1010.0
2015-Jul-22 18:33N 54°51' W 005°48'0 0.0
2015-Jul-22 17:33N 54°51' W 005°48'1413.9
2015-Jul-22 16:34N 54°57' W 005°27'1513.9
2015-Jul-22 15:30N 54°58' W 005°01'0 0.0
2015-Jul-22 14:33N 54°58' W 005°01'10 9.8
2015-Jul-22 13:33N 54°59' W 005°18'1918.1
2015-Jul-22 12:32N 54°51' W 005°48'1 0.6
2015-Jul-22 11:33N 54°51' W 005°48'1313.2
2015-Jul-22 10:33N 54°57' W 005°28'1514.7
2015-Jul-22 09:31N 54°58' W 005°01'0 0.1
2015-Jul-22 08:34N 54°58' W 005°01'1010.1
2015-Jul-22 07:33N 54°59' W 005°18'1818.0
2015-Jul-22 06:32N 54°51' W 005°48'0 0.3
2015-Jul-22 05:33N 54°51' W 005°48'5 4.6
2015-Jul-22 04:34N 54°53' W 005°41'1918.7
2015-Jul-22 03:33N 55°01' W 005°11'7 6.8
2015-Jul-22 02:31N 54°58' W 005°01'0 0.0
2015-Jul-22 01:33N 54°58' W 005°01'3 2.6
2015-Jul-22 00:33N 54°60' W 005°04'1616.6
2015-Jul-21 23:33N 54°55' W 005°31'1110.6
2015-Jul-21 22:33N 54°51' W 005°48'0 0.0
2015-Jul-21 21:33N 54°51' W 005°48'0 0.5
2015-Jul-21 20:33N 54°51' W 005°48'1818.3
2015-Jul-21 19:33N 54°60' W 005°19'1110.2
2015-Jul-21 18:30N 54°58' W 005°01'0 0.0
2015-Jul-21 17:33N 54°58' W 005°01'1111.4
2015-Jul-21 16:34N 54°58' W 005°21'1717.1
2015-Jul-21 15:33N 54°51' W 005°48'0 0.2
2015-Jul-21 14:34N 54°51' W 005°48'1212.0
2015-Jul-21 13:33N 54°56' W 005°30'1615.6
2015-Jul-21 12:33N 54°59' W 005°03'1 1.4
2015-Jul-21 11:33N 54°58' W 005°01'1010.4
2015-Jul-21 10:33N 54°58' W 005°19'1818.0
2015-Jul-21 09:33N 54°51' W 005°48'0 0.3
2015-Jul-21 08:24N 54°51' W 005°48'1213.8
2015-Jul-21 07:33N 54°56' W 005°30'1615.4
2015-Jul-21 06:31N 54°59' W 005°02'1 1.4
2015-Jul-21 05:30N 54°58' W 005°01'2 2.0
2015-Jul-21 04:33N 54°59' W 005°03'1616.3
2015-Jul-21 03:33N 54°55' W 005°30'1111.0
2015-Jul-21 02:33N 54°51' W 005°48'0 0.0
2015-Jul-21 01:33N 54°51' W 005°48'2 1.9
2015-Jul-21 00:33N 54°52' W 005°46'1817.9
2015-Jul-20 23:33N 55°00' W 005°18'10 9.9
2015-Jul-20 22:33N 54°58' W 005°01'0 0.0
2015-Jul-20 21:33N 54°58' W 005°01'5 4.7
2015-Jul-20 20:27N 55°02' W 005°07'1617.9
2015-Jul-20 19:33N 54°55' W 005°32'1010.0
2015-Jul-20 18:33N 54°51' W 005°48'0 0.0
2015-Jul-20 17:33N 54°51' W 005°48'1313.0
2015-Jul-20 16:33N 54°57' W 005°28'1613.6
2015-Jul-20 15:25N 54°58' W 005°01'0 0.0
2015-Jul-20 14:33N 54°58' W 005°01'1111.2
2015-Jul-20 13:33N 54°58' W 005°20'1717.5
2015-Jul-20 12:33N 54°51' W 005°48'0 0.0
2015-Jul-20 11:33N 54°51' W 005°48'1212.2
2015-Jul-20 10:34N 54°57' W 005°29'1615.1
2015-Jul-20 09:31N 54°58' W 005°02'1 0.8
2015-Jul-20 08:34N 54°58' W 005°01'1211.6
2015-Jul-20 07:33N 54°59' W 005°21'1717.3
2015-Jul-20 06:33N 54°51' W 005°48'0 0.1
2015-Jul-20 05:33N 54°51' W 005°48'4 3.8
2015-Jul-20 04:34N 54°53' W 005°43'1918.8
2015-Jul-20 03:34N 55°01' W 005°13'8 7.6
2015-Jul-20 02:34N 54°58' W 005°01'0 0.0
2015-Jul-20 01:34N 54°58' W 005°01'0 0.0
2015-Jul-20 00:31N 54°58' W 005°01'5 4.5
2015-Jul-19 23:22N 55°02' W 005°07'1518.8
2015-Jul-19 22:33N 54°55' W 005°31'1110.6
2015-Jul-19 21:33N 54°51' W 005°48'2 2.1
2015-Jul-19 20:33N 54°53' W 005°47'1817.8
2015-Jul-19 19:33N 54°60' W 005°18'10 9.7
2015-Jul-19 18:31N 54°58' W 005°01'0 0.0
2015-Jul-19 17:33N 54°58' W 005°01'1212.1
2015-Jul-19 16:33N 54°58' W 005°22'1616.4
2015-Jul-19 15:34N 54°51' W 005°48'0 0.1
2015-Jul-19 14:33N 54°51' W 005°48'1414.1
2015-Jul-19 13:34N 54°58' W 005°26'1514.5
2015-Jul-19 12:33N 54°58' W 005°01'0 0.0
2015-Jul-19 11:34N 54°58' W 005°01'1010.1
2015-Jul-19 10:34N 54°57' W 005°19'1817.8
2015-Jul-19 09:33N 54°51' W 005°48'0 0.1
2015-Jul-19 08:34N 54°51' W 005°48'1414.2
2015-Jul-19 07:33N 54°58' W 005°26'1413.9
2015-Jul-19 06:31N 54°58' W 005°01'0 0.0
2015-Jul-19 05:32N 54°58' W 005°01'0 0.0
2015-Jul-19 04:33N 54°58' W 005°01'0 0.0
2015-Jul-19 00:31N 54°58' W 005°01'0 0.0
2015-Jul-18 23:33N 54°58' W 005°01'0 0.0
2015-Jul-18 22:28N 54°58' W 005°01'0 0.0
2015-Jul-18 21:33N 54°58' W 005°01'7 7.2
2015-Jul-18 20:33N 55°00' W 005°13'1919.1
2015-Jul-18 19:33N 54°53' W 005°43'3 3.3
2015-Jul-18 18:34N 54°51' W 005°48'0 0.0
2015-Jul-18 17:33N 54°51' W 005°48'1211.7
2015-Jul-18 16:33N 54°57' W 005°30'1615.3
2015-Jul-18 15:30N 54°59' W 005°02'1 1.1
2015-Jul-18 14:33N 54°58' W 005°01'1110.7
2015-Jul-18 13:33N 54°58' W 005°20'1817.8
2015-Jul-18 12:34N 54°51' W 005°48'  

Dump ship's entire track history